Impacts TAF Board INFO
FOR SITUATIONAL AWARENESS. NOT TO BE USED FOR FLIGHT PLANNING PURPOSES.
IDs:

KDCA - Washington/National, VA, US

Issued at 2326 UTC 24 May 2018
Updated at 0443 UTC 25 May 2018
Potential Impact None Slight Moderate High
Time<<26/05Z 26/06Z 26/07Z 26/08Z 26/09Z 26/10Z 26/11Z 26/12Z 26/13Z 26/14Z 26/15Z 26/16Z 26/17Z
Type PRVL
VIS >6
CIG --
Cover SKC
FltCat VFR
WX --
WDir 210
WSpd 8
WGst --

Raw TAF
KDCA 242326Z 2500/2606 17004KT P6SM SKC
  FM251600 21008KT P6SM SKC


METAR Board
Radar Display
Forecast Discussion

FOR SITUATIONAL AWARENESS. NOT TO BE USED FOR FLIGHT PLANNING PURPOSES.